sensor_id;sensor_type;location;lat;lon;timestamp;P1;durP1;ratioP1;P2;durP2;ratioP2
29940;SDS011;16801;53.562;10.038;2022-08-19T00:03:05;10.98;;;9.98;;
29940;SDS011;16801;53.562;10.038;2022-08-19T00:06:27;10.07;;;9.30;;
29940;SDS011;16801;53.562;10.038;2022-08-19T00:09:49;10.73;;;9.63;;
29940;SDS011;16801;53.562;10.038;2022-08-19T00:13:10;11.23;;;10.10;;
29940;SDS011;16801;53.562;10.038;2022-08-19T00:16:31;12.13;;;11.23;;
29940;SDS011;16801;53.562;10.038;2022-08-19T00:19:55;13.30;;;12.00;;
29940;SDS011;16801;53.562;10.038;2022-08-19T00:23:16;14.95;;;13.45;;
29940;SDS011;16801;53.562;10.038;2022-08-19T00:26:38;16.52;;;14.93;;
29940;SDS011;16801;53.562;10.038;2022-08-19T00:30:00;18.33;;;16.73;;
29940;SDS011;16801;53.562;10.038;2022-08-19T00:33:22;17.55;;;15.95;;
29940;SDS011;16801;53.562;10.038;2022-08-19T00:36:45;17.77;;;15.90;;
29940;SDS011;16801;53.562;10.038;2022-08-19T00:40:07;15.68;;;14.27;;
29940;SDS011;16801;53.562;10.038;2022-08-19T00:43:28;17.67;;;15.98;;
29940;SDS011;16801;53.562;10.038;2022-08-19T00:46:50;19.85;;;18.05;;
29940;SDS011;16801;53.562;10.038;2022-08-19T00:50:13;19.35;;;17.55;;
29940;SDS011;16801;53.562;10.038;2022-08-19T00:53:38;19.55;;;17.85;;
29940;SDS011;16801;53.562;10.038;2022-08-19T00:56:59;17.80;;;16.25;;
29940;SDS011;16801;53.562;10.038;2022-08-19T01:00:23;20.60;;;18.48;;
29940;SDS011;16801;53.562;10.038;2022-08-19T01:03:45;18.15;;;16.48;;
29940;SDS011;16801;53.562;10.038;2022-08-19T01:07:06;23.20;;;16.98;;
29940;SDS011;16801;53.562;10.038;2022-08-19T01:10:30;20.58;;;18.55;;
29940;SDS011;16801;53.562;10.038;2022-08-19T01:13:56;21.25;;;19.08;;
29940;SDS011;16801;53.562;10.038;2022-08-19T01:17:19;22.95;;;20.83;;
29940;SDS011;16801;53.562;10.038;2022-08-19T01:20:41;21.83;;;19.55;;
29940;SDS011;16801;53.562;10.038;2022-08-19T01:24:04;20.75;;;18.83;;
29940;SDS011;16801;53.562;10.038;2022-08-19T01:27:26;22.10;;;19.90;;
29940;SDS011;16801;53.562;10.038;2022-08-19T01:30:47;19.80;;;17.92;;
29940;SDS011;16801;53.562;10.038;2022-08-19T01:34:09;19.75;;;17.75;;
29940;SDS011;16801;53.562;10.038;2022-08-19T01:37:40;21.10;;;18.02;;
29940;SDS011;16801;53.562;10.038;2022-08-19T01:41:04;18.15;;;15.73;;
29940;SDS011;16801;53.562;10.038;2022-08-19T01:44:25;19.42;;;17.48;;
29940;SDS011;16801;53.562;10.038;2022-08-19T01:47:46;18.00;;;16.25;;
29940;SDS011;16801;53.562;10.038;2022-08-19T01:51:08;16.42;;;14.80;;
29940;SDS011;16801;53.562;10.038;2022-08-19T01:54:30;17.88;;;16.27;;
29940;SDS011;16801;53.562;10.038;2022-08-19T01:57:54;16.05;;;14.45;;
29940;SDS011;16801;53.562;10.038;2022-08-19T02:01:17;16.42;;;14.85;;
29940;SDS011;16801;53.562;10.038;2022-08-19T02:04:39;16.05;;;14.25;;
29940;SDS011;16801;53.562;10.038;2022-08-19T02:08:00;15.77;;;14.35;;
29940;SDS011;16801;53.562;10.038;2022-08-19T02:11:22;16.98;;;15.35;;
29940;SDS011;16801;53.562;10.038;2022-08-19T02:14:47;18.10;;;16.30;;
29940;SDS011;16801;53.562;10.038;2022-08-19T02:18:08;18.95;;;17.10;;
29940;SDS011;16801;53.562;10.038;2022-08-19T02:21:30;16.80;;;15.20;;
29940;SDS011;16801;53.562;10.038;2022-08-19T02:24:51;18.48;;;16.67;;
29940;SDS011;16801;53.562;10.038;2022-08-19T02:28:12;18.02;;;15.82;;
29940;SDS011;16801;53.562;10.038;2022-08-19T02:31:35;18.80;;;16.65;;
29940;SDS011;16801;53.562;10.038;2022-08-19T02:34:56;18.08;;;15.98;;
29940;SDS011;16801;53.562;10.038;2022-08-19T02:38:17;19.27;;;17.20;;
29940;SDS011;16801;53.562;10.038;2022-08-19T02:41:47;19.48;;;17.45;;
29940;SDS011;16801;53.562;10.038;2022-08-19T02:45:10;19.75;;;16.45;;
29940;SDS011;16801;53.562;10.038;2022-08-19T02:48:33;20.80;;;18.83;;
29940;SDS011;16801;53.562;10.038;2022-08-19T02:51:53;17.02;;;15.35;;
29940;SDS011;16801;53.562;10.038;2022-08-19T02:55:14;19.42;;;17.60;;
29940;SDS011;16801;53.562;10.038;2022-08-19T02:58:36;21.77;;;19.63;;
29940;SDS011;16801;53.562;10.038;2022-08-19T03:01:57;17.35;;;15.57;;
29940;SDS011;16801;53.562;10.038;2022-08-19T03:05:19;28.42;;;25.48;;
29940;SDS011;16801;53.562;10.038;2022-08-19T03:08:42;26.52;;;22.35;;
29940;SDS011;16801;53.562;10.038;2022-08-19T03:12:05;22.45;;;19.23;;
29940;SDS011;16801;53.562;10.038;2022-08-19T03:15:26;24.85;;;21.55;;
29940;SDS011;16801;53.562;10.038;2022-08-19T03:18:47;23.23;;;20.70;;
29940;SDS011;16801;53.562;10.038;2022-08-19T03:22:10;26.23;;;20.85;;
29940;SDS011;16801;53.562;10.038;2022-08-19T03:25:31;24.75;;;20.38;;
29940;SDS011;16801;53.562;10.038;2022-08-19T03:28:57;22.40;;;18.67;;
29940;SDS011;16801;53.562;10.038;2022-08-19T03:32:18;26.27;;;20.98;;
29940;SDS011;16801;53.562;10.038;2022-08-19T03:35:39;23.13;;;20.35;;
29940;SDS011;16801;53.562;10.038;2022-08-19T03:39:02;29.98;;;21.25;;
29940;SDS011;16801;53.562;10.038;2022-08-19T03:42:23;36.83;;;23.38;;
29940;SDS011;16801;53.562;10.038;2022-08-19T03:45:46;29.00;;;21.77;;
29940;SDS011;16801;53.562;10.038;2022-08-19T03:49:08;29.88;;;23.98;;
29940;SDS011;16801;53.562;10.038;2022-08-19T03:52:29;33.65;;;26.48;;
29940;SDS011;16801;53.562;10.038;2022-08-19T03:55:51;25.08;;;20.85;;
29940;SDS011;16801;53.562;10.038;2022-08-19T03:59:14;29.65;;;21.77;;
29940;SDS011;16801;53.562;10.038;2022-08-19T04:02:36;30.02;;;22.10;;
29940;SDS011;16801;53.562;10.038;2022-08-19T04:05:58;25.85;;;20.67;;
29940;SDS011;16801;53.562;10.038;2022-08-19T04:09:19;26.52;;;20.70;;
29940;SDS011;16801;53.562;10.038;2022-08-19T04:12:41;27.13;;;20.38;;
29940;SDS011;16801;53.562;10.038;2022-08-19T04:16:02;22.58;;;16.73;;
29940;SDS011;16801;53.562;10.038;2022-08-19T04:19:24;20.52;;;17.27;;
29940;SDS011;16801;53.562;10.038;2022-08-19T04:22:46;21.17;;;17.98;;
29940;SDS011;16801;53.562;10.038;2022-08-19T04:26:07;25.67;;;18.67;;
29940;SDS011;16801;53.562;10.038;2022-08-19T04:29:34;22.20;;;18.60;;
29940;SDS011;16801;53.562;10.038;2022-08-19T04:32:58;23.67;;;19.50;;
29940;SDS011;16801;53.562;10.038;2022-08-19T04:36:20;25.08;;;19.73;;
29940;SDS011;16801;53.562;10.038;2022-08-19T04:39:43;24.95;;;19.83;;
29940;SDS011;16801;53.562;10.038;2022-08-19T04:43:21;24.02;;;17.35;;
29940;SDS011;16801;53.562;10.038;2022-08-19T04:46:43;23.33;;;18.67;;
29940;SDS011;16801;53.562;10.038;2022-08-19T04:50:05;22.98;;;20.48;;
29940;SDS011;16801;53.562;10.038;2022-08-19T04:53:26;27.00;;;23.75;;
29940;SDS011;16801;53.562;10.038;2022-08-19T04:56:49;26.95;;;21.75;;
29940;SDS011;16801;53.562;10.038;2022-08-19T05:00:11;24.33;;;20.15;;
29940;SDS011;16801;53.562;10.038;2022-08-19T05:03:34;31.10;;;25.52;;
29940;SDS011;16801;53.562;10.038;2022-08-19T05:06:55;28.75;;;23.13;;
29940;SDS011;16801;53.562;10.038;2022-08-19T05:10:16;40.03;;;30.83;;
29940;SDS011;16801;53.562;10.038;2022-08-19T05:13:37;30.50;;;23.92;;
29940;SDS011;16801;53.562;10.038;2022-08-19T05:17:00;31.10;;;24.58;;
29940;SDS011;16801;53.562;10.038;2022-08-19T05:20:23;33.83;;;29.13;;
29940;SDS011;16801;53.562;10.038;2022-08-19T05:24:01;40.00;;;30.35;;
29940;SDS011;16801;53.562;10.038;2022-08-19T05:27:22;32.25;;;28.10;;
29940;SDS011;16801;53.562;10.038;2022-08-19T05:30:43;31.23;;;27.25;;
29940;SDS011;16801;53.562;10.038;2022-08-19T05:34:05;38.63;;;30.88;;
29940;SDS011;16801;53.562;10.038;2022-08-19T05:37:28;38.78;;;29.98;;
29940;SDS011;16801;53.562;10.038;2022-08-19T05:40:49;34.90;;;26.20;;
29940;SDS011;16801;53.562;10.038;2022-08-19T05:44:10;33.70;;;27.85;;
29940;SDS011;16801;53.562;10.038;2022-08-19T05:47:31;34.60;;;30.85;;
29940;SDS011;16801;53.562;10.038;2022-08-19T05:50:52;35.03;;;30.25;;
29940;SDS011;16801;53.562;10.038;2022-08-19T05:54:15;35.20;;;30.95;;
29940;SDS011;16801;53.562;10.038;2022-08-19T05:57:36;32.08;;;26.00;;
29940;SDS011;16801;53.562;10.038;2022-08-19T06:00:57;31.65;;;26.30;;
29940;SDS011;16801;53.562;10.038;2022-08-19T06:04:23;29.95;;;26.55;;
29940;SDS011;16801;53.562;10.038;2022-08-19T06:07:45;26.05;;;23.48;;
29940;SDS011;16801;53.562;10.038;2022-08-19T06:11:18;24.27;;;21.85;;
29940;SDS011;16801;53.562;10.038;2022-08-19T06:14:41;23.45;;;21.25;;
29940;SDS011;16801;53.562;10.038;2022-08-19T06:18:02;24.90;;;22.45;;
29940;SDS011;16801;53.562;10.038;2022-08-19T06:21:24;28.27;;;25.25;;
29940;SDS011;16801;53.562;10.038;2022-08-19T06:24:47;24.05;;;21.73;;
29940;SDS011;16801;53.562;10.038;2022-08-19T06:28:13;25.63;;;22.98;;
29940;SDS011;16801;53.562;10.038;2022-08-19T06:31:34;27.35;;;24.50;;
29940;SDS011;16801;53.562;10.038;2022-08-19T06:34:57;23.10;;;20.77;;
29940;SDS011;16801;53.562;10.038;2022-08-19T06:38:18;29.52;;;26.58;;
29940;SDS011;16801;53.562;10.038;2022-08-19T06:41:43;27.23;;;24.45;;
29940;SDS011;16801;53.562;10.038;2022-08-19T06:45:11;26.85;;;24.15;;
29940;SDS011;16801;53.562;10.038;2022-08-19T06:48:32;26.05;;;23.33;;
29940;SDS011;16801;53.562;10.038;2022-08-19T06:51:54;28.58;;;25.35;;
29940;SDS011;16801;53.562;10.038;2022-08-19T06:55:16;38.40;;;34.47;;
29940;SDS011;16801;53.562;10.038;2022-08-19T06:58:37;29.90;;;26.77;;
29940;SDS011;16801;53.562;10.038;2022-08-19T07:02:00;27.95;;;24.98;;
29940;SDS011;16801;53.562;10.038;2022-08-19T07:05:24;30.52;;;27.40;;
29940;SDS011;16801;53.562;10.038;2022-08-19T07:08:45;32.75;;;29.20;;
29940;SDS011;16801;53.562;10.038;2022-08-19T07:12:08;28.00;;;25.27;;
29940;SDS011;16801;53.562;10.038;2022-08-19T07:15:30;35.78;;;27.60;;
29940;SDS011;16801;53.562;10.038;2022-08-19T07:18:52;27.73;;;24.77;;
29940;SDS011;16801;53.562;10.038;2022-08-19T07:22:14;29.40;;;26.20;;
29940;SDS011;16801;53.562;10.038;2022-08-19T07:25:35;29.35;;;26.25;;
29940;SDS011;16801;53.562;10.038;2022-08-19T07:28:57;28.13;;;25.08;;
29940;SDS011;16801;53.562;10.038;2022-08-19T07:32:20;27.20;;;23.08;;
29940;SDS011;16801;53.562;10.038;2022-08-19T07:35:43;20.95;;;18.92;;
29940;SDS011;16801;53.562;10.038;2022-08-19T07:39:07;22.85;;;20.60;;
29940;SDS011;16801;53.562;10.038;2022-08-19T07:42:30;22.42;;;19.48;;
29940;SDS011;16801;53.562;10.038;2022-08-19T07:45:51;20.55;;;18.40;;
29940;SDS011;16801;53.562;10.038;2022-08-19T07:49:16;22.98;;;20.63;;
29940;SDS011;16801;53.562;10.038;2022-08-19T07:52:40;21.02;;;18.45;;
29940;SDS011;16801;53.562;10.038;2022-08-19T07:56:03;17.73;;;16.10;;
29940;SDS011;16801;53.562;10.038;2022-08-19T07:59:26;23.95;;;18.25;;
29940;SDS011;16801;53.562;10.038;2022-08-19T08:02:47;23.27;;;20.42;;
29940;SDS011;16801;53.562;10.038;2022-08-19T08:06:08;19.42;;;15.32;;
29940;SDS011;16801;53.562;10.038;2022-08-19T08:09:49;16.65;;;13.25;;
29940;SDS011;16801;53.562;10.038;2022-08-19T08:13:10;16.00;;;14.48;;
29940;SDS011;16801;53.562;10.038;2022-08-19T08:16:31;17.67;;;15.88;;
29940;SDS011;16801;53.562;10.038;2022-08-19T08:19:54;14.52;;;13.20;;
29940;SDS011;16801;53.562;10.038;2022-08-19T08:23:16;17.05;;;15.30;;
29940;SDS011;16801;53.562;10.038;2022-08-19T08:26:45;14.75;;;12.57;;
29940;SDS011;16801;53.562;10.038;2022-08-19T08:30:07;14.93;;;12.18;;
29940;SDS011;16801;53.562;10.038;2022-08-19T08:33:29;13.50;;;12.23;;
29940;SDS011;16801;53.562;10.038;2022-08-19T08:36:50;17.38;;;14.68;;
29940;SDS011;16801;53.562;10.038;2022-08-19T08:40:14;17.58;;;15.00;;
29940;SDS011;16801;53.562;10.038;2022-08-19T08:43:41;13.75;;;12.45;;
29940;SDS011;16801;53.562;10.038;2022-08-19T08:47:09;15.80;;;14.05;;
29940;SDS011;16801;53.562;10.038;2022-08-19T08:50:36;16.45;;;14.75;;
29940;SDS011;16801;53.562;10.038;2022-08-19T08:54:04;17.20;;;15.38;;
29940;SDS011;16801;53.562;10.038;2022-08-19T08:57:29;16.95;;;15.45;;
29940;SDS011;16801;53.562;10.038;2022-08-19T09:00:57;15.43;;;13.70;;
29940;SDS011;16801;53.562;10.038;2022-08-19T09:04:18;20.73;;;18.42;;
29940;SDS011;16801;53.562;10.038;2022-08-19T09:07:41;18.33;;;16.20;;
29940;SDS011;16801;53.562;10.038;2022-08-19T09:11:12;23.52;;;17.60;;
29940;SDS011;16801;53.562;10.038;2022-08-19T09:14:43;18.77;;;16.45;;
29940;SDS011;16801;53.562;10.038;2022-08-19T09:18:10;18.27;;;14.68;;
29940;SDS011;16801;53.562;10.038;2022-08-19T09:21:32;21.38;;;17.42;;
29940;SDS011;16801;53.562;10.038;2022-08-19T09:24:54;20.55;;;16.88;;
29940;SDS011;16801;53.562;10.038;2022-08-19T09:28:15;21.48;;;17.05;;
29940;SDS011;16801;53.562;10.038;2022-08-19T09:31:36;20.17;;;17.00;;
29940;SDS011;16801;53.562;10.038;2022-08-19T09:35:00;20.95;;;18.83;;
29940;SDS011;16801;53.562;10.038;2022-08-19T09:38:21;21.52;;;18.40;;
29940;SDS011;16801;53.562;10.038;2022-08-19T09:41:42;19.23;;;16.40;;
29940;SDS011;16801;53.562;10.038;2022-08-19T09:45:03;21.92;;;17.05;;
29940;SDS011;16801;53.562;10.038;2022-08-19T09:48:24;25.10;;;17.17;;
29940;SDS011;16801;53.562;10.038;2022-08-19T09:51:49;16.20;;;14.35;;
29940;SDS011;16801;53.562;10.038;2022-08-19T09:55:11;25.38;;;15.35;;
29940;SDS011;16801;53.562;10.038;2022-08-19T09:58:32;19.63;;;15.20;;
29940;SDS011;16801;53.562;10.038;2022-08-19T10:01:54;13.88;;;11.80;;
29940;SDS011;16801;53.562;10.038;2022-08-19T10:05:15;18.90;;;14.40;;
29940;SDS011;16801;53.562;10.038;2022-08-19T10:08:55;15.38;;;13.75;;
29940;SDS011;16801;53.562;10.038;2022-08-19T10:12:16;13.63;;;11.60;;
29940;SDS011;16801;53.562;10.038;2022-08-19T10:15:37;17.00;;;13.70;;
29940;SDS011;16801;53.562;10.038;2022-08-19T10:18:58;13.07;;;10.15;;
29940;SDS011;16801;53.562;10.038;2022-08-19T10:22:19;13.85;;;11.23;;
29940;SDS011;16801;53.562;10.038;2022-08-19T10:25:42;19.17;;;13.77;;
29940;SDS011;16801;53.562;10.038;2022-08-19T10:29:03;14.85;;;13.15;;
29940;SDS011;16801;53.562;10.038;2022-08-19T10:32:25;15.82;;;14.20;;
29940;SDS011;16801;53.562;10.038;2022-08-19T10:35:46;15.65;;;13.55;;
29940;SDS011;16801;53.562;10.038;2022-08-19T10:39:09;14.82;;;13.38;;
29940;SDS011;16801;53.562;10.038;2022-08-19T10:42:33;15.85;;;14.13;;
29940;SDS011;16801;53.562;10.038;2022-08-19T10:45:54;16.30;;;14.70;;
29940;SDS011;16801;53.562;10.038;2022-08-19T10:49:18;16.35;;;14.68;;
29940;SDS011;16801;53.562;10.038;2022-08-19T10:52:40;17.15;;;13.98;;
29940;SDS011;16801;53.562;10.038;2022-08-19T10:56:01;16.35;;;14.75;;
29940;SDS011;16801;53.562;10.038;2022-08-19T10:59:41;18.10;;;15.55;;
29940;SDS011;16801;53.562;10.038;2022-08-19T11:03:02;18.05;;;14.82;;
29940;SDS011;16801;53.562;10.038;2022-08-19T11:06:23;17.05;;;13.98;;
29940;SDS011;16801;53.562;10.038;2022-08-19T11:09:45;17.58;;;15.75;;
29940;SDS011;16801;53.562;10.038;2022-08-19T11:13:06;19.45;;;17.60;;
29940;SDS011;16801;53.562;10.038;2022-08-19T11:16:29;18.02;;;16.25;;
29940;SDS011;16801;53.562;10.038;2022-08-19T11:19:51;16.65;;;14.75;;
29940;SDS011;16801;53.562;10.038;2022-08-19T11:23:12;17.02;;;14.00;;
29940;SDS011;16801;53.562;10.038;2022-08-19T11:26:33;17.65;;;15.88;;
29940;SDS011;16801;53.562;10.038;2022-08-19T11:29:55;18.52;;;15.70;;
29940;SDS011;16801;53.562;10.038;2022-08-19T11:33:18;18.38;;;16.20;;
29940;SDS011;16801;53.562;10.038;2022-08-19T11:36:40;17.20;;;15.40;;
29940;SDS011;16801;53.562;10.038;2022-08-19T11:40:04;18.52;;;15.85;;
29940;SDS011;16801;53.562;10.038;2022-08-19T11:43:26;17.95;;;15.32;;
29940;SDS011;16801;53.562;10.038;2022-08-19T11:46:48;17.33;;;15.50;;
29940;SDS011;16801;53.562;10.038;2022-08-19T11:50:10;14.57;;;13.15;;
29940;SDS011;16801;53.562;10.038;2022-08-19T11:53:31;15.77;;;14.15;;
29940;SDS011;16801;53.562;10.038;2022-08-19T11:56:53;14.50;;;13.20;;
29940;SDS011;16801;53.562;10.038;2022-08-19T12:00:15;15.02;;;13.48;;
29940;SDS011;16801;53.562;10.038;2022-08-19T12:03:36;11.75;;;10.65;;
29940;SDS011;16801;53.562;10.038;2022-08-19T12:06:59;15.38;;;13.98;;
29940;SDS011;16801;53.562;10.038;2022-08-19T12:10:22;15.55;;;14.02;;
29940;SDS011;16801;53.562;10.038;2022-08-19T12:13:44;13.60;;;12.30;;
29940;SDS011;16801;53.562;10.038;2022-08-19T12:17:05;13.77;;;10.82;;
29940;SDS011;16801;53.562;10.038;2022-08-19T12:20:28;15.38;;;13.82;;
29940;SDS011;16801;53.562;10.038;2022-08-19T12:23:50;13.82;;;12.63;;
29940;SDS011;16801;53.562;10.038;2022-08-19T12:27:12;13.10;;;11.98;;
29940;SDS011;16801;53.562;10.038;2022-08-19T12:30:33;11.48;;;10.43;;
29940;SDS011;16801;53.562;10.038;2022-08-19T12:33:57;12.63;;;11.52;;
29940;SDS011;16801;53.562;10.038;2022-08-19T12:37:20;15.48;;;11.85;;
29940;SDS011;16801;53.562;10.038;2022-08-19T12:40:42;11.85;;;10.88;;
29940;SDS011;16801;53.562;10.038;2022-08-19T12:44:06;9.15;;;8.23;;
29940;SDS011;16801;53.562;10.038;2022-08-19T12:47:27;13.88;;;11.18;;
29940;SDS011;16801;53.562;10.038;2022-08-19T12:50:49;11.85;;;10.82;;
29940;SDS011;16801;53.562;10.038;2022-08-19T12:54:10;11.18;;;10.27;;
29940;SDS011;16801;53.562;10.038;2022-08-19T12:57:33;12.35;;;11.25;;
29940;SDS011;16801;53.562;10.038;2022-08-19T13:00:55;11.48;;;10.35;;
29940;SDS011;16801;53.562;10.038;2022-08-19T13:04:16;10.25;;;9.25;;
29940;SDS011;16801;53.562;10.038;2022-08-19T13:07:39;10.85;;;9.85;;
29940;SDS011;16801;53.562;10.038;2022-08-19T13:11:06;10.63;;;9.60;;
29940;SDS011;16801;53.562;10.038;2022-08-19T13:14:32;10.48;;;9.57;;
29940;SDS011;16801;53.562;10.038;2022-08-19T13:17:54;8.80;;;8.00;;
29940;SDS011;16801;53.562;10.038;2022-08-19T13:21:15;10.68;;;9.70;;
29940;SDS011;16801;53.562;10.038;2022-08-19T13:24:39;11.82;;;10.82;;
29940;SDS011;16801;53.562;10.038;2022-08-19T13:28:00;11.43;;;10.52;;
29940;SDS011;16801;53.562;10.038;2022-08-19T13:31:23;9.30;;;8.43;;
29940;SDS011;16801;53.562;10.038;2022-08-19T13:35:03;12.73;;;11.45;;
29940;SDS011;16801;53.562;10.038;2022-08-19T13:38:25;9.35;;;8.55;;
29940;SDS011;16801;53.562;10.038;2022-08-19T13:41:46;10.40;;;9.35;;
29940;SDS011;16801;53.562;10.038;2022-08-19T13:45:09;10.82;;;9.93;;
29940;SDS011;16801;53.562;10.038;2022-08-19T13:48:32;11.13;;;10.18;;
29940;SDS011;16801;53.562;10.038;2022-08-19T13:51:53;9.32;;;8.60;;
29940;SDS011;16801;53.562;10.038;2022-08-19T13:55:14;12.07;;;11.02;;
29940;SDS011;16801;53.562;10.038;2022-08-19T13:58:36;9.95;;;9.05;;
29940;SDS011;16801;53.562;10.038;2022-08-19T14:01:57;12.38;;;11.20;;
29940;SDS011;16801;53.562;10.038;2022-08-19T14:05:20;11.63;;;10.82;;
29940;SDS011;16801;53.562;10.038;2022-08-19T14:08:42;9.93;;;9.13;;
29940;SDS011;16801;53.562;10.038;2022-08-19T14:12:03;14.05;;;12.93;;
29940;SDS011;16801;53.562;10.038;2022-08-19T14:15:24;8.80;;;8.05;;
29940;SDS011;16801;53.562;10.038;2022-08-19T14:18:46;11.18;;;10.10;;
29940;SDS011;16801;53.562;10.038;2022-08-19T14:22:09;12.38;;;11.38;;
29940;SDS011;16801;53.562;10.038;2022-08-19T14:25:30;20.20;;;18.50;;
29940;SDS011;16801;53.562;10.038;2022-08-19T14:28:51;13.70;;;12.60;;
29940;SDS011;16801;53.562;10.038;2022-08-19T14:32:16;15.23;;;13.88;;
29940;SDS011;16801;53.562;10.038;2022-08-19T14:35:38;15.55;;;14.02;;
29940;SDS011;16801;53.562;10.038;2022-08-19T14:39:05;10.80;;;10.00;;
29940;SDS011;16801;53.562;10.038;2022-08-19T14:42:26;11.02;;;10.20;;
29940;SDS011;16801;53.562;10.038;2022-08-19T14:45:47;11.32;;;10.27;;
29940;SDS011;16801;53.562;10.038;2022-08-19T14:49:08;10.32;;;9.52;;
29940;SDS011;16801;53.562;10.038;2022-08-19T14:52:29;12.15;;;10.95;;
29940;SDS011;16801;53.562;10.038;2022-08-19T14:55:51;11.32;;;10.52;;
29940;SDS011;16801;53.562;10.038;2022-08-19T14:59:13;12.65;;;11.75;;
29940;SDS011;16801;53.562;10.038;2022-08-19T15:02:34;14.23;;;13.15;;
29940;SDS011;16801;53.562;10.038;2022-08-19T15:05:55;12.18;;;11.15;;
29940;SDS011;16801;53.562;10.038;2022-08-19T15:09:17;12.73;;;11.73;;
29940;SDS011;16801;53.562;10.038;2022-08-19T15:12:39;14.02;;;12.93;;
29940;SDS011;16801;53.562;10.038;2022-08-19T15:16:01;10.30;;;9.50;;
29940;SDS011;16801;53.562;10.038;2022-08-19T15:19:23;12.52;;;11.52;;
29940;SDS011;16801;53.562;10.038;2022-08-19T15:22:44;10.02;;;9.32;;
29940;SDS011;16801;53.562;10.038;2022-08-19T15:26:06;11.32;;;10.43;;
29940;SDS011;16801;53.562;10.038;2022-08-19T15:29:29;13.30;;;12.25;;
29940;SDS011;16801;53.562;10.038;2022-08-19T15:32:50;12.93;;;11.82;;
29940;SDS011;16801;53.562;10.038;2022-08-19T15:36:14;11.98;;;10.93;;
29940;SDS011;16801;53.562;10.038;2022-08-19T15:39:35;13.05;;;11.95;;
29940;SDS011;16801;53.562;10.038;2022-08-19T15:42:56;11.55;;;10.65;;
29940;SDS011;16801;53.562;10.038;2022-08-19T15:46:19;11.85;;;10.85;;
29940;SDS011;16801;53.562;10.038;2022-08-19T15:49:42;10.40;;;9.60;;
29940;SDS011;16801;53.562;10.038;2022-08-19T15:53:04;10.38;;;9.45;;
29940;SDS011;16801;53.562;10.038;2022-08-19T15:56:27;8.32;;;7.72;;
29940;SDS011;16801;53.562;10.038;2022-08-19T16:00:11;11.75;;;10.85;;
29940;SDS011;16801;53.562;10.038;2022-08-19T16:03:52;12.73;;;11.82;;
29940;SDS011;16801;53.562;10.038;2022-08-19T16:07:31;11.35;;;10.25;;
29940;SDS011;16801;53.562;10.038;2022-08-19T16:10:52;11.00;;;10.00;;
29940;SDS011;16801;53.562;10.038;2022-08-19T16:14:14;9.85;;;9.23;;
29940;SDS011;16801;53.562;10.038;2022-08-19T16:17:37;9.85;;;9.07;;
29940;SDS011;16801;53.562;10.038;2022-08-19T16:20:59;9.00;;;8.40;;
29940;SDS011;16801;53.562;10.038;2022-08-19T16:24:21;7.90;;;7.40;;
29940;SDS011;16801;53.562;10.038;2022-08-19T16:27:45;8.23;;;6.70;;
29940;SDS011;16801;53.562;10.038;2022-08-19T16:31:07;8.70;;;7.93;;
29940;SDS011;16801;53.562;10.038;2022-08-19T16:34:28;8.23;;;7.63;;
29940;SDS011;16801;53.562;10.038;2022-08-19T16:37:51;9.07;;;8.07;;
29940;SDS011;16801;53.562;10.038;2022-08-19T16:41:12;8.77;;;8.05;;
29940;SDS011;16801;53.562;10.038;2022-08-19T16:44:33;8.73;;;7.97;;
29940;SDS011;16801;53.562;10.038;2022-08-19T16:47:55;7.05;;;6.45;;
29940;SDS011;16801;53.562;10.038;2022-08-19T16:51:17;7.80;;;7.20;;
29940;SDS011;16801;53.562;10.038;2022-08-19T16:54:39;8.20;;;6.97;;
29940;SDS011;16801;53.562;10.038;2022-08-19T16:58:00;8.38;;;7.78;;
29940;SDS011;16801;53.562;10.038;2022-08-19T17:01:23;9.27;;;8.38;;
29940;SDS011;16801;53.562;10.038;2022-08-19T17:04:44;12.73;;;11.73;;
29940;SDS011;16801;53.562;10.038;2022-08-19T17:08:08;6.78;;;6.22;;
29940;SDS011;16801;53.562;10.038;2022-08-19T17:11:30;12.95;;;11.85;;
29940;SDS011;16801;53.562;10.038;2022-08-19T17:14:52;14.55;;;13.32;;
29940;SDS011;16801;53.562;10.038;2022-08-19T17:18:14;9.07;;;8.32;;
29940;SDS011;16801;53.562;10.038;2022-08-19T17:21:36;26.83;;;24.38;;
29940;SDS011;16801;53.562;10.038;2022-08-19T17:24:59;9.63;;;8.82;;
29940;SDS011;16801;53.562;10.038;2022-08-19T17:28:22;14.98;;;13.77;;
29940;SDS011;16801;53.562;10.038;2022-08-19T17:31:45;9.65;;;8.75;;
29940;SDS011;16801;53.562;10.038;2022-08-19T17:35:06;8.93;;;8.13;;
29940;SDS011;16801;53.562;10.038;2022-08-19T17:38:28;8.38;;;7.68;;
29940;SDS011;16801;53.562;10.038;2022-08-19T17:41:49;9.57;;;8.63;;
29940;SDS011;16801;53.562;10.038;2022-08-19T17:45:13;7.50;;;6.82;;
29940;SDS011;16801;53.562;10.038;2022-08-19T17:48:34;10.18;;;9.30;;
29940;SDS011;16801;53.562;10.038;2022-08-19T17:51:57;26.10;;;23.88;;
29940;SDS011;16801;53.562;10.038;2022-08-19T17:55:19;13.85;;;12.68;;
29940;SDS011;16801;53.562;10.038;2022-08-19T17:58:41;10.65;;;9.85;;
29940;SDS011;16801;53.562;10.038;2022-08-19T18:02:04;9.18;;;8.43;;
29940;SDS011;16801;53.562;10.038;2022-08-19T18:05:28;9.05;;;8.35;;
29940;SDS011;16801;53.562;10.038;2022-08-19T18:08:51;9.43;;;8.52;;
29940;SDS011;16801;53.562;10.038;2022-08-19T18:12:13;10.18;;;9.13;;
29940;SDS011;16801;53.562;10.038;2022-08-19T18:15:34;8.68;;;7.88;;
29940;SDS011;16801;53.562;10.038;2022-08-19T18:18:56;9.13;;;8.35;;
29940;SDS011;16801;53.562;10.038;2022-08-19T18:22:22;9.40;;;8.63;;
29940;SDS011;16801;53.562;10.038;2022-08-19T18:25:45;15.48;;;9.45;;
29940;SDS011;16801;53.562;10.038;2022-08-19T18:29:07;9.68;;;8.93;;
29940;SDS011;16801;53.562;10.038;2022-08-19T18:32:29;10.85;;;9.77;;
29940;SDS011;16801;53.562;10.038;2022-08-19T18:35:53;10.00;;;9.05;;
29940;SDS011;16801;53.562;10.038;2022-08-19T18:39:14;15.40;;;14.15;;
29940;SDS011;16801;53.562;10.038;2022-08-19T18:42:53;10.63;;;9.93;;
29940;SDS011;16801;53.562;10.038;2022-08-19T18:46:32;11.48;;;10.57;;
29940;SDS011;16801;53.562;10.038;2022-08-19T18:50:13;10.55;;;9.70;;
29940;SDS011;16801;53.562;10.038;2022-08-19T18:53:36;9.82;;;9.02;;
29940;SDS011;16801;53.562;10.038;2022-08-19T18:56:59;11.05;;;10.25;;
29940;SDS011;16801;53.562;10.038;2022-08-19T19:00:20;9.63;;;8.93;;
29940;SDS011;16801;53.562;10.038;2022-08-19T19:03:42;12.68;;;11.43;;
29940;SDS011;16801;53.562;10.038;2022-08-19T19:07:07;12.65;;;11.55;;
29940;SDS011;16801;53.562;10.038;2022-08-19T19:10:29;10.82;;;9.93;;
29940;SDS011;16801;53.562;10.038;2022-08-19T19:13:50;11.75;;;10.85;;
29940;SDS011;16801;53.562;10.038;2022-08-19T19:17:13;33.35;;;30.38;;
29940;SDS011;16801;53.562;10.038;2022-08-19T19:20:34;32.83;;;29.85;;
29940;SDS011;16801;53.562;10.038;2022-08-19T19:23:55;23.95;;;21.95;;
29940;SDS011;16801;53.562;10.038;2022-08-19T19:27:18;20.13;;;18.40;;
29940;SDS011;16801;53.562;10.038;2022-08-19T19:30:40;40.20;;;36.30;;
29940;SDS011;16801;53.562;10.038;2022-08-19T19:34:00;33.60;;;30.67;;
29940;SDS011;16801;53.562;10.038;2022-08-19T19:37:21;29.08;;;26.67;;